Terminal Aerodrome Forecast
Issued by NWS Denver/Boulder, CO

Home | Current Version | Previous Version | Text Only | Print | Product List | Glossary On
Versions: 1 2 3 4 5 6 7 8 9 10 11 12 13 14 15 16 17 18 19 20 21 22 23 24 25 26 27 28 29 30 31 32 33 34 35 36 37 38 39 40 41 42 43 44 45 46 47 48 49 50
000
FTUS45 KBOU 261139
TAFDEN
TAF
KDEN 261139Z 2612/2718 22009KT P6SM BKN250
     FM261500 25007KT P6SM FEW140 BKN250
     FM261700 22009KT P6SM FEW100 SCT140 BKN220
     FM262100 18012G22KT P6SM FEW090 SCT140 BKN180
     FM270200 25012KT P6SM SCT090 BKN130
     FM270500 21014KT P6SM FEW090 SCT120 BKN180=

USA.gov is the U.S. government's official web portal to all federal, state and local government web resources and services.